createdAt,value
2018-08-14T00:01:26.440Z,23.60
2018-08-14T00:03:54.950Z,23.60
2018-08-14T00:06:23.456Z,23.60
2018-08-14T00:08:51.971Z,23.60
2018-08-14T00:11:20.473Z,23.60
2018-08-14T00:13:48.982Z,23.60
2018-08-14T00:16:17.485Z,23.50
2018-08-14T00:18:45.988Z,23.60
2018-08-14T00:21:14.482Z,23.50
2018-08-14T00:23:42.978Z,23.50
2018-08-14T00:26:11.479Z,23.50
2018-08-14T00:28:40.029Z,23.50
2018-08-14T00:31:08.599Z,23.50
2018-08-14T00:33:37.083Z,23.50
2018-08-14T00:36:06.075Z,23.50
2018-08-14T00:38:34.571Z,23.50
2018-08-14T00:41:03.079Z,23.40
2018-08-14T00:43:31.569Z,23.50
2018-08-14T00:46:00.080Z,23.50
2018-08-14T00:48:28.579Z,23.40
2018-08-14T00:50:57.079Z,23.40
2018-08-14T00:53:25.587Z,23.40
2018-08-14T00:55:54.079Z,23.40
2018-08-14T00:58:22.582Z,23.40
2018-08-14T01:00:51.079Z,23.40
2018-08-14T01:03:19.605Z,23.40
2018-08-14T01:05:48.119Z,23.40
2018-08-14T01:08:16.678Z,23.40
2018-08-14T01:10:45.189Z,23.40
2018-08-14T01:13:13.698Z,23.40
2018-08-14T01:15:42.204Z,23.40
2018-08-14T01:18:10.740Z,23.40
2018-08-14T01:20:48.245Z,23.40
2018-08-14T01:23:17.012Z,23.40
2018-08-14T01:25:45.511Z,23.40
2018-08-14T01:28:14.020Z,23.40
2018-08-14T01:30:42.535Z,23.30
2018-08-14T01:33:11.058Z,23.30
2018-08-14T01:35:39.570Z,23.30
2018-08-14T01:38:08.103Z,23.30
2018-08-14T01:40:36.615Z,23.30
2018-08-14T01:43:05.139Z,23.30
2018-08-14T01:45:33.634Z,23.30
2018-08-14T01:48:02.175Z,23.30
2018-08-14T01:50:30.682Z,23.30
2018-08-14T01:52:59.187Z,23.30
2018-08-14T01:55:27.691Z,23.30
2018-08-14T01:57:56.211Z,23.30
2018-08-14T02:00:25.946Z,23.30
2018-08-14T02:02:54.671Z,23.20
2018-08-14T02:05:23.363Z,23.20
2018-08-14T02:07:51.883Z,23.20
2018-08-14T02:10:21.679Z,23.20
2018-08-14T02:12:50.180Z,23.20
2018-08-14T02:15:19.437Z,23.20
2018-08-14T02:17:48.013Z,23.20
2018-08-14T02:20:19.078Z,23.20
2018-08-14T02:22:48.270Z,23.20
2018-08-14T02:25:17.143Z,23.20
2018-08-14T02:27:46.137Z,23.20
2018-08-14T02:30:15.476Z,23.20
2018-08-14T02:32:44.307Z,23.20
2018-08-14T02:35:13.470Z,23.10
2018-08-14T02:37:41.966Z,23.10
2018-08-14T02:40:16.023Z,23.10
2018-08-14T02:42:44.736Z,23.10
2018-08-14T02:45:13.280Z,23.10
2018-08-14T02:47:42.045Z,23.10
2018-08-14T02:50:11.601Z,23.10
2018-08-14T02:52:40.563Z,23.10
2018-08-14T02:55:12.187Z,23.10
2018-08-14T02:57:40.686Z,23.10
2018-08-14T03:00:14.399Z,23.10
2018-08-14T03:02:42.924Z,23.10
2018-08-14T03:05:11.468Z,23.00
2018-08-14T03:07:40.443Z,23.00
2018-08-14T03:10:10.849Z,23.00
2018-08-14T03:12:39.390Z,23.00
2018-08-14T03:15:09.243Z,23.00
2018-08-14T03:17:37.774Z,23.00
2018-08-14T03:20:06.749Z,23.00
2018-08-14T03:22:35.251Z,23.00
2018-08-14T03:25:03.802Z,23.00
2018-08-14T03:27:32.320Z,23.00
2018-08-14T03:30:00.852Z,23.00
2018-08-14T03:32:29.339Z,23.00
2018-08-14T03:34:57.842Z,23.00
2018-08-14T03:37:26.354Z,23.00
2018-08-14T03:39:54.851Z,23.00
2018-08-14T03:42:23.347Z,23.00
2018-08-14T03:44:51.843Z,23.00
2018-08-14T03:47:20.351Z,23.00
2018-08-14T03:49:48.843Z,23.00
2018-08-14T03:52:17.347Z,23.00
2018-08-14T03:54:45.847Z,23.00
2018-08-14T03:57:14.350Z,23.00
2018-08-14T03:59:42.855Z,23.00
2018-08-14T04:02:11.379Z,23.00
2018-08-14T04:04:39.891Z,23.00
2018-08-14T04:07:08.387Z,23.00
2018-08-14T04:09:36.883Z,23.00
2018-08-14T04:12:06.393Z,23.00
2018-08-14T04:14:34.910Z,23.00
2018-08-14T04:17:03.411Z,23.00
2018-08-14T04:19:31.915Z,22.90
2018-08-14T04:22:00.423Z,23.00
2018-08-14T04:24:28.927Z,22.90
2018-08-14T04:26:57.432Z,23.00
2018-08-14T04:29:25.987Z,22.90
2018-08-14T04:31:54.501Z,22.90
2018-08-14T04:34:22.996Z,22.90
2018-08-14T04:36:51.495Z,22.90
2018-08-14T04:39:19.999Z,23.00
2018-08-14T04:41:48.494Z,22.90
2018-08-14T04:44:16.984Z,22.90
2018-08-14T04:46:45.483Z,22.90
2018-08-14T04:49:14.141Z,22.90
2018-08-14T04:51:42.630Z,22.90
2018-08-14T04:54:11.131Z,22.90
2018-08-14T04:56:39.635Z,22.90
2018-08-14T04:59:08.164Z,22.90
2018-08-14T05:01:36.670Z,22.90
2018-08-14T05:04:05.610Z,22.90
2018-08-14T05:06:34.115Z,22.90
2018-08-14T05:09:02.661Z,22.90
2018-08-14T05:11:31.165Z,23.00
2018-08-14T05:13:59.668Z,22.90
2018-08-14T05:16:28.167Z,23.00
2018-08-14T05:18:56.857Z,23.00
2018-08-14T05:21:25.362Z,23.00
2018-08-14T05:23:53.867Z,23.00
2018-08-14T05:26:22.359Z,23.00
2018-08-14T05:28:50.862Z,23.00
2018-08-14T05:31:19.375Z,23.00
2018-08-14T05:33:48.256Z,23.00
2018-08-14T05:36:16.983Z,23.00
2018-08-14T05:38:45.979Z,23.00
2018-08-14T05:41:14.659Z,23.00
2018-08-14T05:43:43.163Z,23.00
2018-08-14T05:46:11.656Z,23.10
2018-08-14T05:48:40.153Z,23.10
2018-08-14T05:51:08.651Z,23.10
2018-08-14T05:53:37.148Z,23.10
2018-08-14T05:56:05.855Z,23.10
2018-08-14T05:58:34.527Z,23.10
2018-08-14T06:01:03.024Z,23.20
2018-08-14T06:03:31.563Z,23.10
2018-08-14T06:06:00.076Z,23.20
2018-08-14T06:08:28.568Z,23.20
2018-08-14T06:10:57.099Z,23.20
2018-08-14T06:13:25.643Z,23.30
2018-08-14T06:15:54.155Z,23.20
2018-08-14T06:18:22.647Z,23.20
2018-08-14T06:20:51.155Z,23.20
2018-08-14T06:23:19.651Z,23.20
2018-08-14T06:25:48.157Z,23.20
2018-08-14T06:28:16.660Z,23.20
2018-08-14T06:30:45.300Z,23.20
2018-08-14T06:33:13.794Z,23.20
2018-08-14T06:35:42.292Z,23.20
2018-08-14T06:38:10.799Z,23.20
2018-08-14T06:40:39.312Z,23.20
2018-08-14T06:43:07.825Z,23.20
2018-08-14T06:45:36.327Z,23.20
2018-08-14T06:48:04.840Z,23.20
2018-08-14T06:50:33.373Z,23.20
2018-08-14T06:53:01.892Z,23.30
2018-08-14T06:55:30.395Z,23.20
2018-08-14T06:57:58.900Z,23.30
2018-08-14T07:00:27.404Z,23.30
2018-08-14T07:02:55.901Z,23.30
2018-08-14T07:05:24.396Z,23.30
2018-08-14T07:07:52.896Z,23.30
2018-08-14T07:10:21.391Z,23.30
2018-08-14T07:12:49.904Z,23.30
2018-08-14T07:15:21.799Z,23.30
2018-08-14T07:17:51.058Z,23.30
2018-08-14T07:20:19.586Z,23.30
2018-08-14T07:22:48.091Z,23.30
2018-08-14T07:25:18.564Z,23.30
2018-08-14T07:27:47.069Z,23.40
2018-08-14T07:30:24.170Z,23.40
2018-08-14T07:32:52.754Z,23.40
2018-08-14T07:35:21.269Z,23.40
2018-08-14T07:37:49.941Z,23.40
2018-08-14T07:40:18.487Z,23.40
2018-08-14T07:42:47.012Z,23.40
2018-08-14T07:45:16.631Z,23.40
2018-08-14T07:47:45.355Z,23.40
2018-08-14T07:50:14.607Z,23.50
2018-08-14T07:52:43.975Z,23.50
2018-08-14T07:55:13.424Z,23.40
2018-08-14T07:57:42.322Z,23.40
2018-08-14T08:00:13.279Z,23.50
2018-08-14T08:02:42.018Z,23.50
2018-08-14T08:05:10.987Z,23.50
2018-08-14T08:07:39.489Z,23.50
2018-08-14T08:10:10.751Z,23.50
2018-08-14T08:12:39.839Z,23.60
2018-08-14T08:15:11.216Z,23.60
2018-08-14T08:17:40.515Z,23.60
2018-08-14T08:20:28.639Z,23.60
2018-08-14T08:22:57.455Z,23.60
2018-08-14T08:25:27.220Z,23.60
2018-08-14T08:27:56.524Z,23.70
2018-08-14T08:30:25.206Z,23.70
2018-08-14T08:32:53.728Z,23.70
2018-08-14T08:35:22.228Z,23.70
2018-08-14T08:37:50.752Z,23.70
2018-08-14T08:40:19.265Z,23.70
2018-08-14T08:42:47.775Z,23.70
2018-08-14T08:45:16.272Z,23.80
2018-08-14T08:47:44.771Z,23.80
2018-08-14T08:50:14.671Z,23.80
2018-08-14T08:52:43.922Z,23.80
2018-08-14T08:55:15.368Z,23.80
2018-08-14T08:57:44.439Z,23.90
2018-08-14T09:00:14.926Z,23.90
2018-08-14T09:02:43.457Z,23.90
2018-08-14T09:05:14.547Z,24.00
2018-08-14T09:07:43.064Z,24.00
2018-08-14T09:10:12.396Z,24.00
2018-08-14T09:12:42.169Z,24.00
2018-08-14T09:15:11.580Z,24.00
2018-08-14T09:17:41.610Z,24.00
2018-08-14T09:20:11.747Z,24.00
2018-08-14T09:22:40.240Z,24.00
2018-08-14T09:25:11.678Z,24.00
2018-08-14T09:27:40.943Z,24.10
2018-08-14T09:30:12.014Z,24.10
2018-08-14T09:32:40.916Z,24.10
2018-08-14T09:35:09.768Z,24.10
2018-08-14T09:37:39.679Z,24.10
2018-08-14T09:40:10.845Z,24.10
2018-08-14T09:42:39.374Z,24.10
2018-08-14T09:45:08.663Z,24.00
2018-08-14T09:47:37.495Z,24.00
2018-08-14T09:50:10.779Z,24.00
2018-08-14T09:52:39.291Z,24.00
2018-08-14T09:55:07.787Z,23.90
2018-08-14T09:57:36.751Z,23.90
2018-08-14T10:00:07.983Z,23.90
2018-08-14T10:02:41.859Z,23.90
2018-08-14T10:05:15.600Z,23.90
2018-08-14T10:07:49.238Z,23.90
2018-08-14T10:10:17.747Z,23.90
2018-08-14T10:12:46.796Z,23.90
2018-08-14T10:15:15.303Z,23.90
2018-08-14T10:17:43.804Z,24.00
2018-08-14T10:20:12.995Z,24.00
2018-08-14T10:22:41.522Z,24.00
2018-08-14T10:25:10.067Z,24.00
2018-08-14T10:27:38.568Z,24.00
2018-08-14T10:30:15.108Z,23.90
2018-08-14T10:32:45.143Z,23.90
2018-08-14T10:35:14.075Z,23.90
2018-08-14T10:37:43.467Z,23.90
2018-08-14T10:40:13.565Z,23.90
2018-08-14T10:42:42.194Z,23.90
2018-08-14T10:45:15.565Z,23.90
2018-08-14T10:47:44.915Z,23.80
2018-08-14T10:50:15.943Z,23.80
2018-08-14T10:52:46.016Z,23.80
2018-08-14T10:55:15.024Z,23.80
2018-08-14T10:57:44.047Z,23.70
2018-08-14T11:00:15.883Z,23.70
2018-08-14T11:02:45.063Z,23.70
2018-08-14T11:05:14.347Z,23.70
2018-08-14T11:07:44.284Z,23.70
2018-08-14T11:10:15.542Z,23.70
2018-08-14T11:12:44.211Z,23.70
2018-08-14T11:15:13.408Z,23.70
2018-08-14T11:17:42.403Z,23.70
2018-08-14T11:20:14.139Z,23.80
2018-08-14T11:22:43.455Z,23.80
2018-08-14T11:25:11.964Z,23.80
2018-08-14T11:27:40.826Z,23.70
2018-08-14T11:30:20.103Z,23.80
2018-08-14T11:32:48.623Z,23.80
2018-08-14T11:35:17.623Z,23.80
2018-08-14T11:37:46.115Z,23.80
2018-08-14T11:40:14.707Z,23.80
2018-08-14T11:42:43.238Z,23.80
2018-08-14T11:45:17.170Z,23.90
2018-08-14T11:47:46.283Z,23.90
2018-08-14T11:50:16.503Z,23.90
2018-08-14T11:52:46.736Z,23.90
2018-08-14T11:55:16.651Z,23.90
2018-08-14T11:57:45.921Z,23.90
2018-08-14T12:00:17.923Z,24.00
2018-08-14T12:02:46.896Z,23.90
2018-08-14T12:05:15.679Z,23.90
2018-08-14T12:07:44.193Z,23.90
2018-08-14T12:10:14.619Z,23.90
2018-08-14T12:12:43.177Z,23.90
2018-08-14T12:15:13.195Z,23.90
2018-08-14T12:17:42.595Z,23.90
2018-08-14T12:20:14.247Z,23.90
2018-08-14T12:22:43.245Z,23.90
2018-08-14T12:25:13.035Z,24.00
2018-08-14T12:27:41.528Z,24.00
2018-08-14T12:30:16.979Z,24.00
2018-08-14T12:32:46.090Z,24.00
2018-08-14T12:35:14.620Z,24.10
2018-08-14T12:37:43.198Z,24.10
2018-08-14T12:40:13.464Z,24.10
2018-08-14T12:42:42.023Z,24.10
2018-08-14T12:45:13.689Z,24.00
2018-08-14T12:47:42.591Z,24.00
2018-08-14T12:50:12.311Z,24.00
2018-08-14T12:52:40.828Z,24.00
2018-08-14T12:55:10.288Z,24.00
2018-08-14T12:57:39.155Z,24.10
2018-08-14T13:00:12.276Z,24.10
2018-08-14T13:02:40.784Z,24.20
2018-08-14T13:05:09.298Z,24.20
2018-08-14T13:07:37.800Z,24.30
2018-08-14T13:10:07.788Z,24.30
2018-08-14T13:12:36.299Z,24.40
2018-08-14T13:15:07.037Z,24.40
2018-08-14T13:17:35.699Z,24.40
2018-08-14T13:20:04.988Z,24.40
2018-08-14T13:22:33.531Z,24.40
2018-08-14T13:25:02.024Z,24.40
2018-08-14T13:27:30.523Z,24.40
2018-08-14T13:29:59.024Z,24.40
2018-08-14T13:32:27.536Z,24.40
2018-08-14T13:34:56.107Z,24.40
2018-08-14T13:37:24.627Z,24.40
2018-08-14T13:39:53.131Z,24.40
2018-08-14T13:42:21.652Z,24.30
2018-08-14T13:44:50.203Z,24.40
2018-08-14T13:47:18.711Z,24.40
2018-08-14T13:49:47.225Z,24.40
2018-08-14T13:52:15.737Z,24.40
2018-08-14T13:54:45.479Z,24.30
2018-08-14T13:57:13.983Z,24.30
2018-08-14T13:59:42.483Z,24.30
2018-08-14T14:02:10.978Z,24.30
2018-08-14T14:04:39.479Z,24.30
2018-08-14T14:07:07.987Z,24.40
2018-08-14T14:09:36.487Z,24.40
2018-08-14T14:12:04.992Z,24.40
2018-08-14T14:14:33.494Z,24.40
2018-08-14T14:17:02.011Z,24.50
2018-08-14T14:19:30.532Z,24.50
2018-08-14T14:21:59.047Z,24.40
2018-08-14T14:24:27.535Z,24.40
2018-08-14T14:26:56.039Z,24.40
2018-08-14T14:29:24.527Z,24.30
2018-08-14T14:31:53.042Z,24.30
2018-08-14T14:34:21.576Z,24.30
2018-08-14T14:36:50.143Z,24.30
2018-08-14T14:39:18.755Z,24.30
2018-08-14T14:41:47.283Z,24.30
2018-08-14T14:44:16.032Z,24.30
2018-08-14T14:46:44.542Z,24.30
2018-08-14T14:49:13.059Z,24.40
2018-08-14T14:51:41.606Z,24.40
2018-08-14T14:54:10.132Z,24.40
2018-08-14T14:56:38.648Z,24.40
2018-08-14T14:59:07.148Z,24.40
2018-08-14T15:01:35.648Z,24.40
2018-08-14T15:04:04.160Z,24.40
2018-08-14T15:06:32.667Z,24.40
2018-08-14T15:09:01.168Z,24.30
2018-08-14T15:11:29.659Z,24.30
2018-08-14T15:13:58.210Z,24.30
2018-08-14T15:16:26.682Z,24.20
2018-08-14T15:19:05.023Z,24.20
2018-08-14T15:21:33.520Z,24.20
2018-08-14T15:24:02.021Z,24.10
2018-08-14T15:26:30.520Z,24.20
2018-08-14T15:29:03.377Z,24.20
2018-08-14T15:31:32.645Z,24.20
2018-08-14T15:34:01.811Z,24.20
2018-08-14T15:36:31.730Z,24.20
2018-08-14T15:39:01.647Z,24.20
2018-08-14T15:41:30.787Z,24.20
2018-08-14T15:43:59.299Z,24.10
2018-08-14T15:46:27.818Z,24.10
2018-08-14T15:48:56.333Z,24.10
2018-08-14T15:51:24.823Z,24.10
2018-08-14T15:53:53.762Z,24.10
2018-08-14T15:56:22.755Z,24.10
2018-08-14T15:58:51.432Z,24.00
2018-08-14T16:01:20.036Z,24.00
2018-08-14T16:03:48.544Z,24.00
2018-08-14T16:06:17.052Z,23.90
2018-08-14T16:08:45.563Z,23.90
2018-08-14T16:11:14.069Z,23.80
2018-08-14T16:13:42.567Z,23.80
2018-08-14T16:16:11.075Z,23.70
2018-08-14T16:18:39.599Z,23.70
2018-08-14T16:21:08.539Z,23.70
2018-08-14T16:23:37.040Z,23.70
2018-08-14T16:26:05.536Z,23.70
2018-08-14T16:28:34.052Z,23.60
2018-08-14T16:31:02.547Z,23.60
2018-08-14T16:33:31.259Z,23.60
2018-08-14T16:35:59.771Z,23.50
2018-08-14T16:38:28.288Z,23.50
2018-08-14T16:40:56.887Z,23.50
2018-08-14T16:43:25.379Z,23.50
2018-08-14T16:45:53.928Z,23.50
2018-08-14T16:48:22.431Z,23.40
2018-08-14T16:50:50.927Z,23.40
2018-08-14T16:53:19.424Z,23.40
2018-08-14T16:55:47.980Z,23.40
2018-08-14T16:58:16.483Z,23.40
2018-08-14T17:00:45.250Z,23.30
2018-08-14T17:03:13.746Z,23.30
2018-08-14T17:05:42.257Z,23.30
2018-08-14T17:08:10.777Z,23.30
2018-08-14T17:10:39.268Z,23.30
2018-08-14T17:13:07.788Z,23.30
2018-08-14T17:15:36.312Z,23.30
2018-08-14T17:18:05.377Z,23.20
2018-08-14T17:20:32.814Z,23.20
2018-08-14T17:23:01.295Z,23.20
2018-08-14T17:25:29.795Z,23.20
2018-08-14T17:27:58.303Z,23.20
2018-08-14T17:30:27.984Z,23.20
2018-08-14T17:32:57.528Z,23.20
2018-08-14T17:35:26.046Z,23.20
2018-08-14T17:37:55.367Z,23.10
2018-08-14T17:40:25.382Z,23.20
2018-08-14T17:42:53.941Z,23.10
2018-08-14T17:45:24.742Z,23.10
2018-08-14T17:47:54.825Z,23.10
2018-08-14T17:50:23.819Z,23.10
2018-08-14T17:52:52.321Z,23.00
2018-08-14T17:55:21.803Z,23.00
2018-08-14T17:57:50.478Z,23.10
2018-08-14T18:00:22.084Z,23.00
2018-08-14T18:02:53.511Z,23.00
2018-08-14T18:05:22.008Z,23.00
2018-08-14T18:07:51.060Z,23.00
2018-08-14T18:10:20.997Z,23.00
2018-08-14T18:12:49.518Z,23.00
2018-08-14T18:15:18.758Z,22.90
2018-08-14T18:17:47.291Z,22.90
2018-08-14T18:20:18.156Z,22.90
2018-08-14T18:22:46.680Z,22.90
2018-08-14T18:25:17.593Z,22.90
2018-08-14T18:27:46.581Z,22.90
2018-08-14T18:30:16.847Z,22.90
2018-08-14T18:32:45.359Z,22.90
2018-08-14T18:35:14.314Z,22.80
2018-08-14T18:37:43.588Z,22.80
2018-08-14T18:40:14.306Z,22.80
2018-08-14T18:42:43.418Z,22.80
2018-08-14T18:45:13.820Z,22.80
2018-08-14T18:47:42.468Z,22.80
2018-08-14T18:50:12.411Z,22.70
2018-08-14T18:52:41.091Z,22.70
2018-08-14T18:55:11.343Z,22.70
2018-08-14T18:57:40.135Z,22.70
2018-08-14T19:00:15.845Z,22.70
2018-08-14T19:02:44.360Z,22.70
2018-08-14T19:05:13.062Z,22.70
2018-08-14T19:07:41.601Z,22.70
2018-08-14T19:10:11.155Z,22.70
2018-08-14T19:12:39.691Z,22.70
2018-08-14T19:15:13.457Z,22.70
2018-08-14T19:17:42.824Z,22.60
2018-08-14T19:20:11.979Z,22.60
2018-08-14T19:22:41.259Z,22.60
2018-08-14T19:25:10.339Z,22.60
2018-08-14T19:27:39.941Z,22.60
2018-08-14T19:30:10.044Z,22.60
2018-08-14T19:32:38.534Z,22.60
2018-08-14T19:35:08.115Z,22.60
2018-08-14T19:37:37.051Z,22.60
2018-08-14T19:40:08.300Z,22.50
2018-08-14T19:42:36.795Z,22.50
2018-08-14T19:45:05.955Z,22.50
2018-08-14T19:47:34.475Z,22.50
2018-08-14T19:50:03.727Z,22.50
2018-08-14T19:52:32.725Z,22.50
2018-08-14T19:55:01.229Z,22.50
2018-08-14T19:57:30.733Z,22.50
2018-08-14T19:59:59.387Z,22.50
2018-08-14T20:02:27.875Z,22.50
2018-08-14T20:04:56.380Z,22.50
2018-08-14T20:07:24.886Z,22.40
2018-08-14T20:09:53.411Z,22.50
2018-08-14T20:12:21.925Z,22.40
2018-08-14T20:14:50.431Z,22.40
2018-08-14T20:17:18.936Z,22.40
2018-08-14T20:19:47.447Z,22.40
2018-08-14T20:22:17.475Z,22.40
2018-08-14T20:24:46.560Z,22.40
2018-08-14T20:27:15.546Z,22.40
2018-08-14T20:29:44.547Z,22.40
2018-08-14T20:32:13.055Z,22.40
2018-08-14T20:34:41.556Z,22.40
2018-08-14T20:37:10.080Z,22.40
2018-08-14T20:39:38.595Z,22.30
2018-08-14T20:42:07.163Z,22.30
2018-08-14T20:44:35.705Z,22.30
2018-08-14T20:47:04.217Z,22.30
2018-08-14T20:49:32.731Z,22.30
2018-08-14T20:52:01.497Z,22.30
2018-08-14T20:54:29.999Z,22.30
2018-08-14T20:56:58.507Z,22.30
2018-08-14T20:59:27.002Z,22.30
2018-08-14T21:01:55.507Z,22.30
2018-08-14T21:04:24.009Z,22.30
2018-08-14T21:06:52.499Z,22.20
2018-08-14T21:09:21.003Z,22.30
2018-08-14T21:11:49.500Z,22.20
2018-08-14T21:14:18.016Z,22.20
2018-08-14T21:16:46.520Z,22.20
2018-08-14T21:19:15.026Z,22.20
2018-08-14T21:21:43.524Z,22.20
2018-08-14T21:24:12.028Z,22.20
2018-08-14T21:26:40.516Z,22.20
2018-08-14T21:29:09.021Z,22.20
2018-08-14T21:31:37.533Z,22.20
2018-08-14T21:34:06.425Z,22.20
2018-08-14T21:36:34.923Z,22.20
2018-08-14T21:39:03.952Z,22.20
2018-08-14T21:41:32.447Z,22.20
2018-08-14T21:44:00.951Z,22.20
2018-08-14T21:46:29.464Z,22.20
2018-08-14T21:48:58.032Z,22.20
2018-08-14T21:51:26.566Z,22.20
2018-08-14T21:53:55.075Z,22.20
2018-08-14T21:56:23.619Z,22.10
2018-08-14T21:58:52.451Z,22.10
2018-08-14T22:01:20.955Z,22.10
2018-08-14T22:03:49.467Z,22.10
2018-08-14T22:06:17.967Z,22.10
2018-08-14T22:08:46.495Z,22.10
2018-08-14T22:11:15.006Z,22.10
2018-08-14T22:13:43.500Z,22.10
2018-08-14T22:16:12.003Z,22.10
2018-08-14T22:18:40.516Z,22.10
2018-08-14T22:21:09.017Z,22.10
2018-08-14T22:23:37.521Z,22.10
2018-08-14T22:26:06.021Z,22.10
2018-08-14T22:28:34.522Z,22.10
2018-08-14T22:31:03.151Z,22.10
2018-08-14T22:33:31.654Z,22.10
2018-08-14T22:36:00.176Z,22.00
2018-08-14T22:38:28.674Z,22.00
2018-08-14T22:40:57.176Z,22.00
2018-08-14T22:43:25.723Z,22.00
2018-08-14T22:45:54.227Z,22.00
2018-08-14T22:48:22.727Z,22.00
2018-08-14T22:50:51.226Z,22.00
2018-08-14T22:53:19.759Z,22.00
2018-08-14T22:55:48.282Z,22.00
2018-08-14T22:58:16.784Z,21.90
2018-08-14T23:00:45.276Z,21.90
2018-08-14T23:03:13.791Z,21.90
2018-08-14T23:05:42.293Z,21.90
2018-08-14T23:08:10.789Z,21.90
2018-08-14T23:10:39.323Z,21.90
2018-08-14T23:13:07.828Z,21.90
2018-08-14T23:15:36.336Z,21.90
2018-08-14T23:18:04.847Z,21.90
2018-08-14T23:20:33.360Z,21.90
2018-08-14T23:23:01.874Z,21.80
2018-08-14T23:25:30.737Z,21.80
2018-08-14T23:27:59.235Z,21.80
2018-08-14T23:30:27.730Z,21.80
2018-08-14T23:32:56.239Z,21.80
2018-08-14T23:35:24.737Z,21.80
2018-08-14T23:37:53.239Z,21.80
2018-08-14T23:40:21.737Z,21.80
2018-08-14T23:42:50.245Z,21.80
2018-08-14T23:45:18.751Z,21.80
2018-08-14T23:47:47.255Z,21.80
2018-08-14T23:50:15.744Z,21.80
2018-08-14T23:52:44.235Z,21.70
2018-08-14T23:55:12.735Z,21.70
2018-08-14T23:57:41.307Z,21.70
